Portada
METAR-TAF:

METAR-TAF

Aeroports :

Aeroport de Girona - Costa Brava

Girona, Espanya

latitud: 41-54N, longitud: 002-46E, altitud: 143 m

Observació

L'informe es va fer fa 44 minuts, a les 10:00 UTC
Vent 7 kt del Nord-Est, variant entre Nord/Nord-Oest i Est
Temperatura 22°C
Humitat 41%
Pressió 1027 hPa
Visibilitat 10 km o més
Escasses núvols a una alçada de 6000 ft

METAR: LEGE 251000Z 04007KT 340V090 9999 FEW060 22/08 Q1027

Hora: 12:44 (10:44 UTC)

Pronòstic

L'informe es va fer fa 5 hores i 44 minuts, a les 05:00 UTC
Pronòstic vàlid del 25 a les 06 UTC al 26 a les 06 UTC
Vent 10 kt del Nord/Nord-Est
Visibilitat 10 km o més
Cel ennuvolat a una alçada de 3000 ft
Evolucionant progressivament
l' 25 a les 18 UTC al 25 a les 20 UTC
Vent 5 kt del Nord/Nord-Oest

TAF: LEGE 250500Z 2506/2606 03010KT 9999 BKN030 TX24/2513Z TN15/2506Z BECMG 2518/2520 34005KT

Observacions i pronòstics meteorològics de més de 4000 aeroports (METAR i TAF).

Les estacions disponibles són els punts grocs i vermells al mapa.

Posi el ratolí al punt desitjat per veure el nom de l'estació.

Feu clic per veure les observacions i els pronòstics meteorològics.

Per canviar el mapa: feu clic els botons verds amb una creu de color negre per apropar; al botó verd amb un guió per allunyar la imatge; o en les fletxes verdes per a mapes adjacents.


METAR-TAF: